sensor_id;sensor_type;location;lat;lon;timestamp;P1;durP1;ratioP1;P2;durP2;ratioP2
21107;SDS011;10712;52.944;9.098;2023-06-14T00:00:58;2.33;;;1.85;;
21107;SDS011;10712;52.944;9.098;2023-06-14T00:03:24;4.00;;;2.00;;
21107;SDS011;10712;52.944;9.098;2023-06-14T00:05:51;2.10;;;1.80;;
21107;SDS011;10712;52.944;9.098;2023-06-14T00:08:17;2.83;;;1.80;;
21107;SDS011;10712;52.944;9.098;2023-06-14T00:10:44;2.63;;;2.08;;
21107;SDS011;10712;52.944;9.098;2023-06-14T00:13:10;2.40;;;2.08;;
21107;SDS011;10712;52.944;9.098;2023-06-14T00:15:36;7.65;;;1.60;;
21107;SDS011;10712;52.944;9.098;2023-06-14T00:18:03;7.07;;;2.00;;
21107;SDS011;10712;52.944;9.098;2023-06-14T00:20:31;3.08;;;2.00;;
21107;SDS011;10712;52.944;9.098;2023-06-14T00:22:58;2.30;;;1.90;;
21107;SDS011;10712;52.944;9.098;2023-06-14T00:25:25;2.30;;;2.05;;
21107;SDS011;10712;52.944;9.098;2023-06-14T00:27:55;2.47;;;2.03;;
21107;SDS011;10712;52.944;9.098;2023-06-14T00:30:22;4.63;;;2.33;;
21107;SDS011;10712;52.944;9.098;2023-06-14T00:32:48;3.92;;;2.42;;
21107;SDS011;10712;52.944;9.098;2023-06-14T00:35:16;3.28;;;2.13;;
21107;SDS011;10712;52.944;9.098;2023-06-14T00:37:42;2.95;;;1.75;;
21107;SDS011;10712;52.944;9.098;2023-06-14T00:40:08;6.18;;;2.60;;
21107;SDS011;10712;52.944;9.098;2023-06-14T00:42:34;2.40;;;2.20;;
21107;SDS011;10712;52.944;9.098;2023-06-14T00:45:00;3.30;;;2.03;;
21107;SDS011;10712;52.944;9.098;2023-06-14T00:47:26;1.50;;;1.40;;
21107;SDS011;10712;52.944;9.098;2023-06-14T00:49:55;2.22;;;1.88;;
21107;SDS011;10712;52.944;9.098;2023-06-14T00:52:23;4.28;;;2.80;;
21107;SDS011;10712;52.944;9.098;2023-06-14T00:54:50;6.03;;;2.10;;
21107;SDS011;10712;52.944;9.098;2023-06-14T00:57:16;3.58;;;2.40;;
21107;SDS011;10712;52.944;9.098;2023-06-14T00:59:43;3.13;;;2.47;;
21107;SDS011;10712;52.944;9.098;2023-06-14T01:02:11;4.53;;;2.30;;
21107;SDS011;10712;52.944;9.098;2023-06-14T01:04:40;4.18;;;2.20;;
21107;SDS011;10712;52.944;9.098;2023-06-14T01:10:12;7.25;;;2.42;;
21107;SDS011;10712;52.944;9.098;2023-06-14T01:15:57;2.72;;;2.42;;
21107;SDS011;10712;52.944;9.098;2023-06-14T01:18:24;4.15;;;2.40;;
21107;SDS011;10712;52.944;9.098;2023-06-14T01:20:51;4.57;;;2.65;;
21107;SDS011;10712;52.944;9.098;2023-06-14T01:23:20;7.93;;;2.80;;
21107;SDS011;10712;52.944;9.098;2023-06-14T01:25:48;5.05;;;2.10;;
21107;SDS011;10712;52.944;9.098;2023-06-14T01:28:18;5.95;;;2.35;;
21107;SDS011;10712;52.944;9.098;2023-06-14T01:30:46;6.15;;;2.75;;
21107;SDS011;10712;52.944;9.098;2023-06-14T01:33:23;3.88;;;2.70;;
21107;SDS011;10712;52.944;9.098;2023-06-14T01:35:52;2.30;;;2.10;;
21107;SDS011;10712;52.944;9.098;2023-06-14T01:38:24;3.53;;;2.20;;
21107;SDS011;10712;52.944;9.098;2023-06-14T01:40:52;4.35;;;2.47;;
21107;SDS011;10712;52.944;9.098;2023-06-14T01:43:24;3.65;;;2.72;;
21107;SDS011;10712;52.944;9.098;2023-06-14T01:45:52;4.10;;;2.53;;
21107;SDS011;10712;52.944;9.098;2023-06-14T01:48:20;5.03;;;3.17;;
21107;SDS011;10712;52.944;9.098;2023-06-14T01:50:48;3.60;;;2.40;;
21107;SDS011;10712;52.944;9.098;2023-06-14T01:53:15;4.00;;;2.63;;
21107;SDS011;10712;52.944;9.098;2023-06-14T01:55:41;4.18;;;2.83;;
21107;SDS011;10712;52.944;9.098;2023-06-14T01:58:09;5.10;;;3.20;;
21107;SDS011;10712;52.944;9.098;2023-06-14T02:00:36;6.60;;;2.38;;
21107;SDS011;10712;52.944;9.098;2023-06-14T02:03:01;3.92;;;2.63;;
21107;SDS011;10712;52.944;9.098;2023-06-14T02:05:30;3.70;;;2.63;;
21107;SDS011;10712;52.944;9.098;2023-06-14T02:07:56;3.50;;;2.80;;
21107;SDS011;10712;52.944;9.098;2023-06-14T02:10:22;3.15;;;2.53;;
21107;SDS011;10712;52.944;9.098;2023-06-14T02:12:48;7.07;;;3.22;;
21107;SDS011;10712;52.944;9.098;2023-06-14T02:15:15;4.43;;;2.08;;
21107;SDS011;10712;52.944;9.098;2023-06-14T02:17:47;3.08;;;2.25;;
21107;SDS011;10712;52.944;9.098;2023-06-14T02:20:15;3.15;;;2.60;;
21107;SDS011;10712;52.944;9.098;2023-06-14T02:22:42;3.85;;;2.33;;
21107;SDS011;10712;52.944;9.098;2023-06-14T02:25:08;3.72;;;2.70;;
21107;SDS011;10712;52.944;9.098;2023-06-14T02:27:34;2.53;;;2.33;;
21107;SDS011;10712;52.944;9.098;2023-06-14T02:30:02;3.63;;;2.90;;
21107;SDS011;10712;52.944;9.098;2023-06-14T02:32:31;6.43;;;2.42;;
21107;SDS011;10712;52.944;9.098;2023-06-14T02:34:59;3.22;;;2.20;;
21107;SDS011;10712;52.944;9.098;2023-06-14T02:37:25;3.10;;;2.80;;
21107;SDS011;10712;52.944;9.098;2023-06-14T02:39:52;8.00;;;2.40;;
21107;SDS011;10712;52.944;9.098;2023-06-14T02:42:18;5.60;;;2.90;;
21107;SDS011;10712;52.944;9.098;2023-06-14T02:44:43;4.60;;;2.45;;
21107;SDS011;10712;52.944;9.098;2023-06-14T02:47:11;3.28;;;2.75;;
21107;SDS011;10712;52.944;9.098;2023-06-14T02:49:37;4.85;;;2.97;;
21107;SDS011;10712;52.944;9.098;2023-06-14T02:52:03;4.03;;;2.80;;
21107;SDS011;10712;52.944;9.098;2023-06-14T02:54:30;6.10;;;2.67;;
21107;SDS011;10712;52.944;9.098;2023-06-14T02:56:57;3.63;;;2.70;;
21107;SDS011;10712;52.944;9.098;2023-06-14T02:59:23;6.60;;;3.03;;
21107;SDS011;10712;52.944;9.098;2023-06-14T03:01:53;5.38;;;2.75;;
21107;SDS011;10712;52.944;9.098;2023-06-14T03:04:19;7.70;;;2.70;;
21107;SDS011;10712;52.944;9.098;2023-06-14T03:06:46;5.57;;;2.53;;
21107;SDS011;10712;52.944;9.098;2023-06-14T03:09:16;5.25;;;2.53;;
21107;SDS011;10712;52.944;9.098;2023-06-14T03:11:42;5.82;;;2.97;;
21107;SDS011;10712;52.944;9.098;2023-06-14T03:14:09;4.15;;;2.60;;
21107;SDS011;10712;52.944;9.098;2023-06-14T03:16:37;4.32;;;2.50;;
21107;SDS011;10712;52.944;9.098;2023-06-14T03:19:03;6.10;;;3.17;;
21107;SDS011;10712;52.944;9.098;2023-06-14T03:21:31;4.10;;;3.20;;
21107;SDS011;10712;52.944;9.098;2023-06-14T03:23:59;4.32;;;2.60;;
21107;SDS011;10712;52.944;9.098;2023-06-14T03:26:25;4.65;;;3.13;;
21107;SDS011;10712;52.944;9.098;2023-06-14T03:28:54;4.03;;;3.05;;
21107;SDS011;10712;52.944;9.098;2023-06-14T03:31:21;3.33;;;2.85;;
21107;SDS011;10712;52.944;9.098;2023-06-14T03:33:48;4.78;;;3.30;;
21107;SDS011;10712;52.944;9.098;2023-06-14T03:36:15;5.82;;;3.00;;
21107;SDS011;10712;52.944;9.098;2023-06-14T03:38:43;4.10;;;2.97;;
21107;SDS011;10712;52.944;9.098;2023-06-14T03:41:10;3.65;;;2.80;;
21107;SDS011;10712;52.944;9.098;2023-06-14T03:43:36;4.88;;;3.25;;
21107;SDS011;10712;52.944;9.098;2023-06-14T03:46:02;4.45;;;2.85;;
21107;SDS011;10712;52.944;9.098;2023-06-14T03:48:30;3.87;;;3.53;;
21107;SDS011;10712;52.944;9.098;2023-06-14T03:50:57;3.50;;;3.13;;
21107;SDS011;10712;52.944;9.098;2023-06-14T03:53:23;6.22;;;3.53;;
21107;SDS011;10712;52.944;9.098;2023-06-14T03:55:50;6.28;;;3.25;;
21107;SDS011;10712;52.944;9.098;2023-06-14T03:58:18;4.80;;;3.47;;
21107;SDS011;10712;52.944;9.098;2023-06-14T04:00:45;5.47;;;2.90;;
21107;SDS011;10712;52.944;9.098;2023-06-14T04:03:11;4.15;;;2.72;;
21107;SDS011;10712;52.944;9.098;2023-06-14T04:05:38;3.95;;;3.10;;
21107;SDS011;10712;52.944;9.098;2023-06-14T04:08:08;2.60;;;2.40;;
21107;SDS011;10712;52.944;9.098;2023-06-14T04:10:35;3.60;;;3.17;;
21107;SDS011;10712;52.944;9.098;2023-06-14T04:13:01;3.80;;;3.20;;
21107;SDS011;10712;52.944;9.098;2023-06-14T04:15:28;4.43;;;3.03;;
21107;SDS011;10712;52.944;9.098;2023-06-14T04:17:55;7.05;;;2.95;;
21107;SDS011;10712;52.944;9.098;2023-06-14T04:20:23;5.05;;;3.20;;
21107;SDS011;10712;52.944;9.098;2023-06-14T04:22:51;6.65;;;3.50;;
21107;SDS011;10712;52.944;9.098;2023-06-14T04:25:18;3.40;;;2.92;;
21107;SDS011;10712;52.944;9.098;2023-06-14T04:27:45;3.47;;;3.05;;
21107;SDS011;10712;52.944;9.098;2023-06-14T04:30:12;4.85;;;3.60;;
21107;SDS011;10712;52.944;9.098;2023-06-14T04:32:46;3.50;;;3.20;;
21107;SDS011;10712;52.944;9.098;2023-06-14T04:35:12;6.97;;;3.83;;
21107;SDS011;10712;52.944;9.098;2023-06-14T04:37:41;6.93;;;3.30;;
21107;SDS011;10712;52.944;9.098;2023-06-14T04:40:09;4.72;;;3.60;;
21107;SDS011;10712;52.944;9.098;2023-06-14T04:42:37;3.65;;;2.63;;
21107;SDS011;10712;52.944;9.098;2023-06-14T04:45:05;3.95;;;2.80;;
21107;SDS011;10712;52.944;9.098;2023-06-14T04:47:33;4.55;;;2.95;;
21107;SDS011;10712;52.944;9.098;2023-06-14T04:49:59;3.17;;;2.63;;
21107;SDS011;10712;52.944;9.098;2023-06-14T04:52:28;7.07;;;3.38;;
21107;SDS011;10712;52.944;9.098;2023-06-14T04:54:55;3.63;;;2.88;;
21107;SDS011;10712;52.944;9.098;2023-06-14T04:57:22;4.05;;;2.50;;
21107;SDS011;10712;52.944;9.098;2023-06-14T04:59:49;4.47;;;2.80;;
21107;SDS011;10712;52.944;9.098;2023-06-14T05:02:23;3.13;;;2.70;;
21107;SDS011;10712;52.944;9.098;2023-06-14T05:04:50;5.15;;;2.78;;
21107;SDS011;10712;52.944;9.098;2023-06-14T05:07:16;5.13;;;2.70;;
21107;SDS011;10712;52.944;9.098;2023-06-14T05:09:42;3.60;;;3.15;;
21107;SDS011;10712;52.944;9.098;2023-06-14T05:12:09;4.22;;;3.05;;
21107;SDS011;10712;52.944;9.098;2023-06-14T05:14:35;3.67;;;3.17;;
21107;SDS011;10712;52.944;9.098;2023-06-14T05:17:02;7.22;;;3.10;;
21107;SDS011;10712;52.944;9.098;2023-06-14T05:19:28;4.25;;;2.90;;
21107;SDS011;10712;52.944;9.098;2023-06-14T05:21:54;8.82;;;3.88;;
21107;SDS011;10712;52.944;9.098;2023-06-14T05:24:20;4.07;;;3.00;;
21107;SDS011;10712;52.944;9.098;2023-06-14T05:26:46;3.85;;;2.80;;
21107;SDS011;10712;52.944;9.098;2023-06-14T05:29:12;3.08;;;2.78;;
21107;SDS011;10712;52.944;9.098;2023-06-14T05:31:38;4.10;;;2.50;;
21107;SDS011;10712;52.944;9.098;2023-06-14T05:34:03;5.13;;;2.78;;
21107;SDS011;10712;52.944;9.098;2023-06-14T05:36:29;3.60;;;2.85;;
21107;SDS011;10712;52.944;9.098;2023-06-14T05:38:55;4.93;;;2.88;;
21107;SDS011;10712;52.944;9.098;2023-06-14T05:41:24;4.43;;;2.90;;
21107;SDS011;10712;52.944;9.098;2023-06-14T05:43:53;6.82;;;3.08;;
21107;SDS011;10712;52.944;9.098;2023-06-14T05:46:21;4.53;;;2.95;;
21107;SDS011;10712;52.944;9.098;2023-06-14T05:48:53;4.68;;;3.17;;
21107;SDS011;10712;52.944;9.098;2023-06-14T05:51:20;5.88;;;3.13;;
21107;SDS011;10712;52.944;9.098;2023-06-14T05:53:47;4.80;;;2.88;;
21107;SDS011;10712;52.944;9.098;2023-06-14T05:56:13;5.68;;;3.33;;
21107;SDS011;10712;52.944;9.098;2023-06-14T05:58:40;2.97;;;2.55;;
21107;SDS011;10712;52.944;9.098;2023-06-14T06:01:06;3.85;;;2.40;;
21107;SDS011;10712;52.944;9.098;2023-06-14T06:03:32;3.80;;;3.00;;
21107;SDS011;10712;52.944;9.098;2023-06-14T06:05:59;4.80;;;2.50;;
21107;SDS011;10712;52.944;9.098;2023-06-14T06:08:25;3.03;;;2.70;;
21107;SDS011;10712;52.944;9.098;2023-06-14T06:10:52;3.85;;;2.40;;
21107;SDS011;10712;52.944;9.098;2023-06-14T06:13:18;5.95;;;2.70;;
21107;SDS011;10712;52.944;9.098;2023-06-14T06:15:44;3.63;;;2.50;;
21107;SDS011;10712;52.944;9.098;2023-06-14T06:18:10;5.43;;;2.45;;
21107;SDS011;10712;52.944;9.098;2023-06-14T06:20:35;2.42;;;2.13;;
21107;SDS011;10712;52.944;9.098;2023-06-14T06:23:01;3.72;;;2.70;;
21107;SDS011;10712;52.944;9.098;2023-06-14T06:25:27;5.43;;;2.65;;
21107;SDS011;10712;52.944;9.098;2023-06-14T06:27:54;2.83;;;2.22;;
21107;SDS011;10712;52.944;9.098;2023-06-14T06:30:24;5.68;;;2.47;;
21107;SDS011;10712;52.944;9.098;2023-06-14T06:32:50;2.22;;;1.98;;
21107;SDS011;10712;52.944;9.098;2023-06-14T06:35:16;4.60;;;2.60;;
21107;SDS011;10712;52.944;9.098;2023-06-14T06:37:42;3.45;;;2.00;;
21107;SDS011;10712;52.944;9.098;2023-06-14T06:40:08;2.92;;;2.17;;
21107;SDS011;10712;52.944;9.098;2023-06-14T06:42:35;4.30;;;2.63;;
21107;SDS011;10712;52.944;9.098;2023-06-14T06:45:05;2.85;;;2.13;;
21107;SDS011;10712;52.944;9.098;2023-06-14T06:47:31;2.35;;;1.92;;
21107;SDS011;10712;52.944;9.098;2023-06-14T06:49:57;3.80;;;2.00;;
21107;SDS011;10712;52.944;9.098;2023-06-14T06:52:22;3.05;;;2.22;;
21107;SDS011;10712;52.944;9.098;2023-06-14T06:54:48;2.38;;;2.00;;
21107;SDS011;10712;52.944;9.098;2023-06-14T06:57:15;3.13;;;1.73;;
21107;SDS011;10712;52.944;9.098;2023-06-14T06:59:41;2.10;;;1.60;;
21107;SDS011;10712;52.944;9.098;2023-06-14T07:02:07;2.75;;;1.95;;
21107;SDS011;10712;52.944;9.098;2023-06-14T07:04:33;3.22;;;1.88;;
21107;SDS011;10712;52.944;9.098;2023-06-14T07:06:58;5.45;;;2.22;;
21107;SDS011;10712;52.944;9.098;2023-06-14T07:09:24;4.07;;;2.45;;
21107;SDS011;10712;52.944;9.098;2023-06-14T07:11:50;1.83;;;1.42;;
21107;SDS011;10712;52.944;9.098;2023-06-14T07:14:16;2.70;;;1.75;;
21107;SDS011;10712;52.944;9.098;2023-06-14T07:16:42;4.93;;;2.17;;
21107;SDS011;10712;52.944;9.098;2023-06-14T07:19:08;3.25;;;1.83;;
21107;SDS011;10712;52.944;9.098;2023-06-14T07:21:35;2.53;;;1.60;;
21107;SDS011;10712;52.944;9.098;2023-06-14T07:24:04;2.40;;;2.20;;
21107;SDS011;10712;52.944;9.098;2023-06-14T07:26:33;1.88;;;1.73;;
21107;SDS011;10712;52.944;9.098;2023-06-14T07:29:00;3.13;;;2.28;;
21107;SDS011;10712;52.944;9.098;2023-06-14T07:31:26;3.20;;;1.73;;
21107;SDS011;10712;52.944;9.098;2023-06-14T07:33:52;1.58;;;1.48;;
21107;SDS011;10712;52.944;9.098;2023-06-14T07:36:18;2.75;;;1.60;;
21107;SDS011;10712;52.944;9.098;2023-06-14T07:38:44;4.93;;;1.60;;
21107;SDS011;10712;52.944;9.098;2023-06-14T07:41:11;3.00;;;1.63;;
21107;SDS011;10712;52.944;9.098;2023-06-14T07:43:36;1.98;;;1.65;;
21107;SDS011;10712;52.944;9.098;2023-06-14T07:46:02;2.10;;;1.80;;
21107;SDS011;10712;52.944;9.098;2023-06-14T07:48:28;3.30;;;2.08;;
21107;SDS011;10712;52.944;9.098;2023-06-14T07:50:54;1.92;;;1.50;;
21107;SDS011;10712;52.944;9.098;2023-06-14T07:53:20;3.75;;;1.90;;
21107;SDS011;10712;52.944;9.098;2023-06-14T07:55:46;3.90;;;2.40;;
21107;SDS011;10712;52.944;9.098;2023-06-14T07:58:12;2.33;;;1.67;;
21107;SDS011;10712;52.944;9.098;2023-06-14T08:00:38;3.33;;;1.95;;
21107;SDS011;10712;52.944;9.098;2023-06-14T08:03:04;2.78;;;1.70;;
21107;SDS011;10712;52.944;9.098;2023-06-14T08:05:29;1.77;;;1.67;;
21107;SDS011;10712;52.944;9.098;2023-06-14T08:07:56;2.92;;;1.70;;
21107;SDS011;10712;52.944;9.098;2023-06-14T08:10:22;3.47;;;1.75;;
21107;SDS011;10712;52.944;9.098;2023-06-14T08:12:48;2.53;;;2.30;;
21107;SDS011;10712;52.944;9.098;2023-06-14T08:15:17;1.80;;;1.70;;
21107;SDS011;10712;52.944;9.098;2023-06-14T08:17:43;3.13;;;1.60;;
21107;SDS011;10712;52.944;9.098;2023-06-14T08:20:10;1.65;;;1.30;;
21107;SDS011;10712;52.944;9.098;2023-06-14T08:22:37;1.98;;;1.33;;
21107;SDS011;10712;52.944;9.098;2023-06-14T08:25:04;4.03;;;2.00;;
21107;SDS011;10712;52.944;9.098;2023-06-14T08:27:31;3.45;;;1.60;;
21107;SDS011;10712;52.944;9.098;2023-06-14T08:29:57;1.50;;;1.40;;
21107;SDS011;10712;52.944;9.098;2023-06-14T08:32:23;2.58;;;1.63;;
21107;SDS011;10712;52.944;9.098;2023-06-14T08:34:49;3.08;;;2.08;;
21107;SDS011;10712;52.944;9.098;2023-06-14T08:37:14;4.00;;;1.70;;
21107;SDS011;10712;52.944;9.098;2023-06-14T08:39:40;1.83;;;1.48;;
21107;SDS011;10712;52.944;9.098;2023-06-14T08:42:07;3.35;;;1.45;;
21107;SDS011;10712;52.944;9.098;2023-06-14T08:44:35;1.33;;;1.20;;
21107;SDS011;10712;52.944;9.098;2023-06-14T08:47:01;1.42;;;1.33;;
21107;SDS011;10712;52.944;9.098;2023-06-14T08:49:28;2.78;;;1.70;;
21107;SDS011;10712;52.944;9.098;2023-06-14T08:51:57;3.13;;;1.63;;
21107;SDS011;10712;52.944;9.098;2023-06-14T08:54:28;2.13;;;1.92;;
21107;SDS011;10712;52.944;9.098;2023-06-14T08:56:58;2.17;;;1.48;;
21107;SDS011;10712;52.944;9.098;2023-06-14T08:59:25;1.73;;;1.52;;
21107;SDS011;10712;52.944;9.098;2023-06-14T09:01:52;2.45;;;1.33;;
21107;SDS011;10712;52.944;9.098;2023-06-14T09:04:20;1.88;;;1.75;;
21107;SDS011;10712;52.944;9.098;2023-06-14T09:06:47;2.65;;;1.35;;
21107;SDS011;10712;52.944;9.098;2023-06-14T09:09:20;1.55;;;1.40;;
21107;SDS011;10712;52.944;9.098;2023-06-14T09:11:48;4.18;;;1.48;;
21107;SDS011;10712;52.944;9.098;2023-06-14T09:14:15;1.67;;;1.52;;
21107;SDS011;10712;52.944;9.098;2023-06-14T09:16:43;1.73;;;1.52;;
21107;SDS011;10712;52.944;9.098;2023-06-14T09:19:13;2.10;;;1.63;;
21107;SDS011;10712;52.944;9.098;2023-06-14T09:21:47;4.18;;;1.80;;
21107;SDS011;10712;52.944;9.098;2023-06-14T09:24:14;2.10;;;1.90;;
21107;SDS011;10712;52.944;9.098;2023-06-14T09:26:40;2.20;;;1.58;;
21107;SDS011;10712;52.944;9.098;2023-06-14T09:29:06;2.03;;;1.45;;
21107;SDS011;10712;52.944;9.098;2023-06-14T09:31:34;2.65;;;2.03;;
21107;SDS011;10712;52.944;9.098;2023-06-14T09:34:01;1.92;;;1.70;;
21107;SDS011;10712;52.944;9.098;2023-06-14T09:36:28;4.25;;;1.83;;
21107;SDS011;10712;52.944;9.098;2023-06-14T09:38:57;2.17;;;2.00;;
21107;SDS011;10712;52.944;9.098;2023-06-14T09:41:34;2.17;;;1.70;;
21107;SDS011;10712;52.944;9.098;2023-06-14T09:44:01;4.97;;;1.80;;
21107;SDS011;10712;52.944;9.098;2023-06-14T09:46:30;2.33;;;1.70;;
21107;SDS011;10712;52.944;9.098;2023-06-14T09:48:57;2.45;;;2.25;;
21107;SDS011;10712;52.944;9.098;2023-06-14T09:51:23;5.18;;;1.88;;
21107;SDS011;10712;52.944;9.098;2023-06-14T09:53:50;3.05;;;1.98;;
21107;SDS011;10712;52.944;9.098;2023-06-14T09:56:27;2.17;;;1.83;;
21107;SDS011;10712;52.944;9.098;2023-06-14T09:58:55;2.13;;;1.92;;
21107;SDS011;10712;52.944;9.098;2023-06-14T10:01:24;1.75;;;1.60;;
21107;SDS011;10712;52.944;9.098;2023-06-14T10:04:05;4.22;;;1.85;;
21107;SDS011;10712;52.944;9.098;2023-06-14T10:06:32;9.10;;;1.85;;
21107;SDS011;10712;52.944;9.098;2023-06-14T10:09:03;2.50;;;2.25;;
21107;SDS011;10712;52.944;9.098;2023-06-14T10:11:32;3.13;;;1.70;;
21107;SDS011;10712;52.944;9.098;2023-06-14T10:14:00;2.35;;;1.70;;
21107;SDS011;10712;52.944;9.098;2023-06-14T10:24:12;2.90;;;2.28;;
21107;SDS011;10712;52.944;9.098;2023-06-14T10:26:54;2.92;;;2.10;;
21107;SDS011;10712;52.944;9.098;2023-06-14T10:29:24;2.20;;;2.00;;
21107;SDS011;10712;52.944;9.098;2023-06-14T10:31:50;2.22;;;1.90;;
21107;SDS011;10712;52.944;9.098;2023-06-14T10:34:28;5.00;;;1.88;;
21107;SDS011;10712;52.944;9.098;2023-06-14T10:39:51;3.13;;;2.55;;
21107;SDS011;10712;52.944;9.098;2023-06-14T10:42:18;3.78;;;2.22;;
21107;SDS011;10712;52.944;9.098;2023-06-14T10:44:51;3.30;;;2.47;;
21107;SDS011;10712;52.944;9.098;2023-06-14T10:47:31;3.05;;;1.90;;
21107;SDS011;10712;52.944;9.098;2023-06-14T10:52:42;6.38;;;2.20;;
21107;SDS011;10712;52.944;9.098;2023-06-14T10:55:12;2.53;;;2.33;;
21107;SDS011;10712;52.944;9.098;2023-06-14T11:00:12;5.00;;;2.90;;
21107;SDS011;10712;52.944;9.098;2023-06-14T11:05:54;6.73;;;2.57;;
21107;SDS011;10712;52.944;9.098;2023-06-14T11:08:29;6.32;;;3.38;;
21107;SDS011;10712;52.944;9.098;2023-06-14T11:11:37;2.85;;;2.20;;
21107;SDS011;10712;52.944;9.098;2023-06-14T11:14:07;2.50;;;2.30;;
21107;SDS011;10712;52.944;9.098;2023-06-14T11:16:33;2.50;;;2.30;;
21107;SDS011;10712;52.944;9.098;2023-06-14T11:19:02;3.08;;;2.47;;
21107;SDS011;10712;52.944;9.098;2023-06-14T11:21:28;2.95;;;2.25;;
21107;SDS011;10712;52.944;9.098;2023-06-14T11:23:56;4.32;;;2.30;;
21107;SDS011;10712;52.944;9.098;2023-06-14T11:26:29;2.85;;;1.92;;
21107;SDS011;10712;52.944;9.098;2023-06-14T11:28:58;3.38;;;2.88;;
21107;SDS011;10712;52.944;9.098;2023-06-14T11:31:29;2.50;;;2.30;;
21107;SDS011;10712;52.944;9.098;2023-06-14T11:33:56;3.63;;;2.30;;
21107;SDS011;10712;52.944;9.098;2023-06-14T11:36:26;3.70;;;2.08;;
21107;SDS011;10712;52.944;9.098;2023-06-14T11:39:03;5.57;;;2.50;;
21107;SDS011;10712;52.944;9.098;2023-06-14T11:41:35;3.33;;;2.15;;
21107;SDS011;10712;52.944;9.098;2023-06-14T11:44:10;3.75;;;2.60;;
21107;SDS011;10712;52.944;9.098;2023-06-14T11:46:36;4.38;;;2.40;;
21107;SDS011;10712;52.944;9.098;2023-06-14T11:49:02;3.97;;;2.45;;
21107;SDS011;10712;52.944;9.098;2023-06-14T11:51:32;2.40;;;2.20;;
21107;SDS011;10712;52.944;9.098;2023-06-14T11:54:02;4.32;;;2.55;;
21107;SDS011;10712;52.944;9.098;2023-06-14T11:56:31;2.90;;;2.38;;
21107;SDS011;10712;52.944;9.098;2023-06-14T11:58:57;2.83;;;2.50;;
21107;SDS011;10712;52.944;9.098;2023-06-14T12:01:23;6.60;;;2.38;;
21107;SDS011;10712;52.944;9.098;2023-06-14T12:03:50;4.40;;;2.28;;
21107;SDS011;10712;52.944;9.098;2023-06-14T12:06:28;3.05;;;2.03;;
21107;SDS011;10712;52.944;9.098;2023-06-14T12:09:03;2.67;;;2.47;;
21107;SDS011;10712;52.944;9.098;2023-06-14T12:11:32;3.07;;;2.40;;
21107;SDS011;10712;52.944;9.098;2023-06-14T12:14:02;3.13;;;2.80;;
21107;SDS011;10712;52.944;9.098;2023-06-14T12:16:33;2.50;;;2.30;;
21107;SDS011;10712;52.944;9.098;2023-06-14T12:19:14;3.03;;;2.25;;
21107;SDS011;10712;52.944;9.098;2023-06-14T12:21:42;4.32;;;2.15;;
21107;SDS011;10712;52.944;9.098;2023-06-14T12:24:16;4.70;;;2.22;;
21107;SDS011;10712;52.944;9.098;2023-06-14T12:26:42;5.80;;;2.55;;
21107;SDS011;10712;52.944;9.098;2023-06-14T12:29:07;4.85;;;2.78;;
21107;SDS011;10712;52.944;9.098;2023-06-14T12:31:33;4.00;;;2.22;;
21107;SDS011;10712;52.944;9.098;2023-06-14T12:33:59;5.97;;;2.88;;
21107;SDS011;10712;52.944;9.098;2023-06-14T12:36:25;3.15;;;2.47;;
21107;SDS011;10712;52.944;9.098;2023-06-14T12:38:51;2.72;;;2.20;;
21107;SDS011;10712;52.944;9.098;2023-06-14T12:41:21;2.80;;;2.47;;
21107;SDS011;10712;52.944;9.098;2023-06-14T12:43:47;5.60;;;2.47;;
21107;SDS011;10712;52.944;9.098;2023-06-14T12:46:13;2.85;;;2.58;;
21107;SDS011;10712;52.944;9.098;2023-06-14T12:48:39;4.38;;;2.60;;
21107;SDS011;10712;52.944;9.098;2023-06-14T12:51:05;3.05;;;2.28;;
21107;SDS011;10712;52.944;9.098;2023-06-14T12:53:31;2.08;;;1.58;;
21107;SDS011;10712;52.944;9.098;2023-06-14T12:55:57;8.90;;;2.20;;
21107;SDS011;10712;52.944;9.098;2023-06-14T12:58:23;5.65;;;2.35;;
21107;SDS011;10712;52.944;9.098;2023-06-14T13:00:49;3.15;;;2.10;;
21107;SDS011;10712;52.944;9.098;2023-06-14T13:03:15;2.30;;;2.10;;
21107;SDS011;10712;52.944;9.098;2023-06-14T13:05:41;3.83;;;2.33;;
21107;SDS011;10712;52.944;9.098;2023-06-14T13:08:08;2.42;;;2.20;;
21107;SDS011;10712;52.944;9.098;2023-06-14T13:10:34;12.15;;;2.75;;
21107;SDS011;10712;52.944;9.098;2023-06-14T13:13:00;3.15;;;2.17;;
21107;SDS011;10712;52.944;9.098;2023-06-14T13:15:26;5.70;;;2.58;;
21107;SDS011;10712;52.944;9.098;2023-06-14T13:17:52;3.92;;;2.63;;
21107;SDS011;10712;52.944;9.098;2023-06-14T13:20:18;5.38;;;2.78;;
21107;SDS011;10712;52.944;9.098;2023-06-14T13:22:44;4.22;;;2.30;;
21107;SDS011;10712;52.944;9.098;2023-06-14T13:25:10;3.90;;;2.10;;
21107;SDS011;10712;52.944;9.098;2023-06-14T13:27:35;3.33;;;2.00;;
21107;SDS011;10712;52.944;9.098;2023-06-14T13:30:02;6.22;;;2.40;;
21107;SDS011;10712;52.944;9.098;2023-06-14T13:32:30;2.38;;;2.17;;
21107;SDS011;10712;52.944;9.098;2023-06-14T13:34:56;4.65;;;2.38;;
21107;SDS011;10712;52.944;9.098;2023-06-14T13:37:22;3.47;;;2.25;;
21107;SDS011;10712;52.944;9.098;2023-06-14T13:39:49;2.47;;;2.28;;
21107;SDS011;10712;52.944;9.098;2023-06-14T13:42:15;2.97;;;2.50;;
21107;SDS011;10712;52.944;9.098;2023-06-14T13:44:40;4.50;;;2.85;;
21107;SDS011;10712;52.944;9.098;2023-06-14T13:47:06;3.10;;;2.28;;
21107;SDS011;10712;52.944;9.098;2023-06-14T13:49:32;4.95;;;2.53;;
21107;SDS011;10712;52.944;9.098;2023-06-14T13:52:00;3.25;;;2.63;;
21107;SDS011;10712;52.944;9.098;2023-06-14T13:54:26;3.53;;;2.72;;
21107;SDS011;10712;52.944;9.098;2023-06-14T13:56:52;2.72;;;2.53;;
21107;SDS011;10712;52.944;9.098;2023-06-14T13:59:18;5.00;;;2.33;;
21107;SDS011;10712;52.944;9.098;2023-06-14T14:01:44;3.30;;;2.40;;
21107;SDS011;10712;52.944;9.098;2023-06-14T14:04:10;3.58;;;2.40;;
21107;SDS011;10712;52.944;9.098;2023-06-14T14:06:36;4.22;;;2.60;;
21107;SDS011;10712;52.944;9.098;2023-06-14T14:09:02;2.88;;;2.33;;
21107;SDS011;10712;52.944;9.098;2023-06-14T14:11:28;3.75;;;2.53;;
21107;SDS011;10712;52.944;9.098;2023-06-14T14:13:58;4.45;;;2.70;;
21107;SDS011;10712;52.944;9.098;2023-06-14T14:16:24;2.85;;;2.20;;
21107;SDS011;10712;52.944;9.098;2023-06-14T14:18:50;2.70;;;2.33;;
21107;SDS011;10712;52.944;9.098;2023-06-14T14:21:16;4.78;;;2.53;;
21107;SDS011;10712;52.944;9.098;2023-06-14T14:23:42;5.80;;;2.90;;
21107;SDS011;10712;52.944;9.098;2023-06-14T14:26:09;7.40;;;2.72;;
21107;SDS011;10712;52.944;9.098;2023-06-14T14:28:34;5.28;;;2.70;;
21107;SDS011;10712;52.944;9.098;2023-06-14T14:31:01;4.30;;;2.67;;
21107;SDS011;10712;52.944;9.098;2023-06-14T14:33:27;3.75;;;2.13;;
21107;SDS011;10712;52.944;9.098;2023-06-14T14:35:52;5.90;;;2.90;;
21107;SDS011;10712;52.944;9.098;2023-06-14T14:38:18;2.75;;;2.17;;
21107;SDS011;10712;52.944;9.098;2023-06-14T14:40:44;7.57;;;2.55;;
21107;SDS011;10712;52.944;9.098;2023-06-14T14:43:10;3.47;;;2.75;;
21107;SDS011;10712;52.944;9.098;2023-06-14T14:45:36;3.75;;;2.08;;
21107;SDS011;10712;52.944;9.098;2023-06-14T14:48:02;3.72;;;2.30;;
21107;SDS011;10712;52.944;9.098;2023-06-14T14:50:28;3.20;;;2.55;;
21107;SDS011;10712;52.944;9.098;2023-06-14T14:52:54;3.33;;;2.83;;
21107;SDS011;10712;52.944;9.098;2023-06-14T14:55:21;2.33;;;2.13;;
21107;SDS011;10712;52.944;9.098;2023-06-14T14:57:47;3.38;;;2.75;;
21107;SDS011;10712;52.944;9.098;2023-06-14T15:00:13;2.80;;;2.05;;
21107;SDS011;10712;52.944;9.098;2023-06-14T15:02:39;4.50;;;2.17;;
21107;SDS011;10712;52.944;9.098;2023-06-14T15:05:05;2.30;;;2.10;;
21107;SDS011;10712;52.944;9.098;2023-06-14T15:07:31;1.98;;;1.63;;
21107;SDS011;10712;52.944;9.098;2023-06-14T15:09:59;6.25;;;2.78;;
21107;SDS011;10712;52.944;9.098;2023-06-14T15:12:25;2.78;;;2.20;;
21107;SDS011;10712;52.944;9.098;2023-06-14T15:14:51;3.28;;;2.55;;